createdAt,value
2019-03-05T00:00:20.457Z,0
2019-03-05T00:01:20.439Z,0
2019-03-05T00:02:20.419Z,0
2019-03-05T00:03:20.412Z,0
2019-03-05T00:04:20.403Z,0
2019-03-05T00:05:20.382Z,0
2019-03-05T00:06:20.374Z,0
2019-03-05T00:07:20.358Z,0
2019-03-05T00:08:20.346Z,0
2019-03-05T00:09:20.330Z,0
2019-03-05T00:10:20.322Z,0
2019-03-05T00:11:20.309Z,0
2019-03-05T00:12:20.303Z,0
2019-03-05T00:13:20.287Z,0
2019-03-05T00:14:21.368Z,0
2019-03-05T00:15:20.291Z,0
2019-03-05T00:16:20.243Z,0
2019-03-05T00:17:20.224Z,0
2019-03-05T00:18:20.227Z,0
2019-03-05T00:19:20.200Z,0
2019-03-05T00:20:20.200Z,0
2019-03-05T00:21:20.174Z,0
2019-03-05T00:22:20.164Z,0
2019-03-05T00:23:20.157Z,0
2019-03-05T00:24:19.899Z,0
2019-03-05T00:25:20.133Z,0
2019-03-05T00:26:20.118Z,0
2019-03-05T00:27:20.109Z,0
2019-03-05T00:28:20.097Z,0
2019-03-05T00:29:20.080Z,0
2019-03-05T00:30:20.064Z,0
2019-03-05T00:31:20.057Z,0
2019-03-05T00:32:20.037Z,0
2019-03-05T00:33:20.028Z,0
2019-03-05T00:34:20.020Z,0
2019-03-05T00:35:20.005Z,0
2019-03-05T00:36:19.997Z,0
2019-03-05T00:37:19.976Z,0
2019-03-05T00:38:19.977Z,0
2019-03-05T00:39:19.719Z,0
2019-03-05T00:40:19.942Z,0
2019-03-05T00:41:19.930Z,0
2019-03-05T00:42:19.914Z,0
2019-03-05T00:43:19.906Z,0
2019-03-05T00:44:19.888Z,0
2019-03-05T00:45:19.877Z,0
2019-03-05T00:46:19.874Z,0
2019-03-05T00:47:19.888Z,0
2019-03-05T00:48:19.852Z,0
2019-03-05T00:49:19.590Z,0
2019-03-05T00:50:19.819Z,0
2019-03-05T00:51:31.612Z,0
2019-03-05T00:52:19.555Z,0
2019-03-05T00:53:19.785Z,0
2019-03-05T00:54:19.768Z,0
2019-03-05T00:55:19.759Z,0
2019-03-05T00:56:19.749Z,0
2019-03-05T00:57:19.732Z,0
2019-03-05T00:58:19.725Z,0
2019-03-05T00:59:19.709Z,0
2019-03-05T01:00:19.694Z,0
2019-03-05T01:01:19.690Z,0
2019-03-05T01:02:19.671Z,0
2019-03-05T01:03:19.755Z,0
2019-03-05T01:04:19.647Z,0
2019-03-05T01:05:19.632Z,0
2019-03-05T01:06:19.628Z,0
2019-03-05T01:07:19.610Z,0
2019-03-05T01:08:22.131Z,0
2019-03-05T01:09:19.596Z,0
2019-03-05T01:10:19.585Z,0
2019-03-05T01:11:19.558Z,0
2019-03-05T01:12:19.546Z,0
2019-03-05T01:13:19.538Z,0
2019-03-05T01:14:19.523Z,0
2019-03-05T01:15:19.510Z,0
2019-03-05T01:16:19.502Z,0
2019-03-05T01:17:19.489Z,0
2019-03-05T01:18:19.479Z,0
2019-03-05T01:19:19.462Z,0
2019-03-05T01:20:19.449Z,0
2019-03-05T01:21:19.446Z,0
2019-03-05T01:22:19.430Z,0
2019-03-05T01:23:19.411Z,0
2019-03-05T01:24:19.478Z,0
2019-03-05T01:25:19.148Z,0
2019-03-05T01:26:19.382Z,0
2019-03-05T01:27:19.363Z,0
2019-03-05T01:28:19.357Z,0
2019-03-05T01:29:19.335Z,0
2019-03-05T01:30:19.325Z,0
2019-03-05T01:31:19.318Z,0
2019-03-05T01:32:19.321Z,0
2019-03-05T01:33:19.294Z,0
2019-03-05T01:34:19.274Z,0
2019-03-05T01:35:19.270Z,0
2019-03-05T01:36:19.253Z,0
2019-03-05T01:37:19.302Z,0
2019-03-05T01:38:19.225Z,0
2019-03-05T01:39:19.215Z,0
2019-03-05T01:40:19.203Z,0
2019-03-05T01:41:19.197Z,0
2019-03-05T01:42:19.174Z,0
2019-03-05T01:43:19.162Z,0
2019-03-05T01:44:19.147Z,0
2019-03-05T01:45:19.135Z,0
2019-03-05T01:46:19.125Z,0
2019-03-05T01:47:19.177Z,0
2019-03-05T01:48:19.102Z,0
2019-03-05T01:49:19.084Z,0
2019-03-05T01:50:19.074Z,0
2019-03-05T01:51:19.055Z,0
2019-03-05T01:52:19.043Z,0
2019-03-05T01:53:19.111Z,0
2019-03-05T01:54:19.061Z,0
2019-03-05T01:55:19.019Z,0
2019-03-05T01:56:19.012Z,0
2019-03-05T01:57:18.978Z,0
2019-03-05T01:58:18.976Z,0
2019-03-05T01:59:18.956Z,0
2019-03-05T02:00:19.158Z,0
2019-03-05T02:01:18.930Z,0
2019-03-05T02:02:18.961Z,0
2019-03-05T02:03:18.895Z,0
2019-03-05T02:04:18.888Z,0
2019-03-05T02:05:18.870Z,0
2019-03-05T02:06:18.861Z,0
2019-03-05T02:07:18.843Z,0
2019-03-05T02:08:18.838Z,0
2019-03-05T02:09:18.818Z,0
2019-03-05T02:10:18.801Z,0
2019-03-05T02:11:18.792Z,0
2019-03-05T02:12:18.775Z,0
2019-03-05T02:13:18.764Z,0
2019-03-05T02:14:18.746Z,0
2019-03-05T02:15:18.739Z,0
2019-03-05T02:16:18.721Z,0
2019-03-05T02:17:18.707Z,0
2019-03-05T02:18:18.696Z,0
2019-03-05T02:19:18.691Z,0
2019-03-05T02:20:18.694Z,0
2019-03-05T02:21:18.661Z,0
2019-03-05T02:22:18.638Z,0
2019-03-05T02:23:18.625Z,0
2019-03-05T02:24:18.608Z,0
2019-03-05T02:25:18.356Z,0
2019-03-05T02:26:18.595Z,0
2019-03-05T02:27:18.571Z,0
2019-03-05T02:28:18.560Z,0
2019-03-05T02:29:18.549Z,0
2019-03-05T02:30:18.539Z,0
2019-03-05T02:31:18.526Z,0
2019-03-05T02:32:18.518Z,0
2019-03-05T02:33:18.495Z,0
2019-03-05T02:34:18.494Z,0
2019-03-05T02:35:18.463Z,0
2019-03-05T02:36:18.457Z,0
2019-03-05T02:37:18.440Z,0
2019-03-05T02:38:18.426Z,0
2019-03-05T02:39:18.181Z,0
2019-03-05T02:40:18.410Z,0
2019-03-05T02:41:18.392Z,0
2019-03-05T02:42:18.371Z,0
2019-03-05T02:43:18.359Z,0
2019-03-05T02:44:18.333Z,0
2019-03-05T02:45:18.334Z,0
2019-03-05T02:46:18.318Z,0
2019-03-05T02:47:18.316Z,0
2019-03-05T02:48:18.283Z,0
2019-03-05T02:49:18.282Z,0
2019-03-05T02:50:18.252Z,0
2019-03-05T02:51:18.240Z,0
2019-03-05T02:52:18.232Z,0
2019-03-05T02:53:17.979Z,0
2019-03-05T02:54:18.213Z,0
2019-03-05T02:55:18.189Z,0
2019-03-05T02:56:18.170Z,0
2019-03-05T02:57:18.163Z,0
2019-03-05T02:58:18.151Z,0
2019-03-05T02:59:18.141Z,0
2019-03-05T03:00:18.127Z,0
2019-03-05T03:01:17.862Z,0
2019-03-05T03:02:18.109Z,0
2019-03-05T03:03:18.074Z,0
2019-03-05T03:04:18.130Z,0
2019-03-05T03:05:18.055Z,0
2019-03-05T03:06:18.035Z,0
2019-03-05T03:07:17.788Z,0
2019-03-05T03:08:18.017Z,0
2019-03-05T03:09:17.986Z,0
2019-03-05T03:10:17.984Z,0
2019-03-05T03:11:17.972Z,0
2019-03-05T03:12:17.945Z,0
2019-03-05T03:13:17.949Z,0
2019-03-05T03:14:17.931Z,0
2019-03-05T03:15:17.673Z,0
2019-03-05T03:16:17.905Z,0
2019-03-05T03:17:18.080Z,0
2019-03-05T03:18:17.866Z,0
2019-03-05T03:19:17.864Z,0
2019-03-05T03:20:17.854Z,0
2019-03-05T03:21:17.827Z,0
2019-03-05T03:22:17.815Z,0
2019-03-05T03:23:17.813Z,0
2019-03-05T03:24:17.783Z,0
2019-03-05T03:25:17.767Z,0
2019-03-05T03:26:17.766Z,0
2019-03-05T03:27:17.746Z,0
2019-03-05T03:28:17.726Z,0
2019-03-05T03:29:17.719Z,0
2019-03-05T03:30:17.999Z,0
2019-03-05T03:31:17.701Z,0
2019-03-05T03:32:17.720Z,0
2019-03-05T03:33:17.769Z,0
2019-03-05T03:34:17.684Z,0
2019-03-05T03:35:17.660Z,0
2019-03-05T03:36:17.660Z,0
2019-03-05T03:37:17.628Z,0
2019-03-05T03:38:17.616Z,0
2019-03-05T03:39:17.590Z,0
2019-03-05T03:40:17.598Z,0
2019-03-05T03:41:17.555Z,0
2019-03-05T03:42:17.550Z,0
2019-03-05T03:43:17.300Z,0
2019-03-05T03:44:17.529Z,0
2019-03-05T03:45:17.526Z,0
2019-03-05T03:46:17.503Z,0
2019-03-05T03:47:17.527Z,0
2019-03-05T03:48:17.465Z,0
2019-03-05T03:49:17.463Z,0
2019-03-05T03:50:17.200Z,0
2019-03-05T03:51:17.439Z,0
2019-03-05T03:52:17.418Z,0
2019-03-05T03:53:17.420Z,0
2019-03-05T03:54:17.421Z,0
2019-03-05T03:55:17.398Z,0
2019-03-05T03:56:17.364Z,0
2019-03-05T03:57:17.356Z,0
2019-03-05T03:58:17.346Z,0
2019-03-05T03:59:17.328Z,0
2019-03-05T04:00:17.316Z,0
2019-03-05T04:01:17.321Z,0
2019-03-05T04:02:17.303Z,0
2019-03-05T04:03:17.366Z,0
2019-03-05T04:04:17.282Z,0
2019-03-05T04:05:17.290Z,0
2019-03-05T04:06:17.258Z,0
2019-03-05T04:07:17.260Z,0
2019-03-05T04:08:17.749Z,0
2019-03-05T04:09:17.221Z,0
2019-03-05T04:10:17.216Z,0
2019-03-05T04:11:17.183Z,0
2019-03-05T04:12:17.178Z,0
2019-03-05T04:13:17.160Z,0
2019-03-05T04:14:17.196Z,0
2019-03-05T04:15:17.166Z,0
2019-03-05T04:16:17.118Z,0
2019-03-05T04:17:17.161Z,0
2019-03-05T04:18:17.109Z,0
2019-03-05T04:19:17.093Z,0
2019-03-05T04:20:17.074Z,0
2019-03-05T04:21:19.831Z,0
2019-03-05T04:22:17.050Z,0
2019-03-05T04:23:17.072Z,0
2019-03-05T04:24:17.026Z,0
2019-03-05T04:25:17.006Z,0
2019-03-05T04:26:16.997Z,0
2019-03-05T04:27:16.982Z,0
2019-03-05T04:28:16.970Z,0
2019-03-05T04:29:16.972Z,0
2019-03-05T04:30:16.960Z,0
2019-03-05T04:31:16.941Z,0
2019-03-05T04:32:16.925Z,0
2019-03-05T04:33:16.946Z,0
2019-03-05T04:34:16.918Z,0
2019-03-05T04:35:16.890Z,0
2019-03-05T04:36:16.875Z,0
2019-03-05T04:37:16.917Z,0
2019-03-05T04:38:16.607Z,0
2019-03-05T04:39:16.854Z,0
2019-03-05T04:40:16.840Z,0
2019-03-05T04:41:17.088Z,0
2019-03-05T04:42:16.822Z,0
2019-03-05T04:43:16.812Z,0
2019-03-05T04:44:16.807Z,0
2019-03-05T04:45:16.786Z,0
2019-03-05T04:46:16.768Z,0
2019-03-05T04:47:16.514Z,0
2019-03-05T04:48:16.750Z,0
2019-03-05T04:49:16.734Z,0
2019-03-05T04:50:16.726Z,0
2019-03-05T04:51:16.709Z,0
2019-03-05T04:52:16.700Z,0
2019-03-05T04:53:16.690Z,0
2019-03-05T04:54:16.674Z,0
2019-03-05T04:55:16.661Z,0
2019-03-05T04:56:16.646Z,0
2019-03-05T04:57:16.641Z,0
2019-03-05T04:58:16.622Z,0
2019-03-05T04:59:16.617Z,0
2019-03-05T05:00:16.623Z,0
2019-03-05T05:01:16.615Z,0
2019-03-05T05:02:16.594Z,0
2019-03-05T05:03:16.566Z,24
2019-03-05T05:04:16.555Z,32
2019-03-05T05:05:16.541Z,36
2019-03-05T05:06:16.541Z,36
2019-03-05T05:07:16.514Z,36
2019-03-05T05:08:16.504Z,36
2019-03-05T05:09:16.494Z,40
2019-03-05T05:10:16.477Z,40
2019-03-05T05:11:16.468Z,40
2019-03-05T05:12:16.214Z,40
2019-03-05T05:13:16.446Z,40
2019-03-05T05:14:16.436Z,40
2019-03-05T05:15:16.421Z,44
2019-03-05T05:16:16.408Z,44
2019-03-05T05:17:16.394Z,0
2019-03-05T05:18:16.387Z,0
2019-03-05T05:19:16.374Z,4
2019-03-05T05:20:16.363Z,0
2019-03-05T05:21:16.179Z,4
2019-03-05T05:22:16.335Z,0
2019-03-05T05:23:16.326Z,4
2019-03-05T05:24:16.310Z,4
2019-03-05T05:25:16.303Z,4
2019-03-05T05:26:17.754Z,8
2019-03-05T05:27:16.274Z,8
2019-03-05T05:28:16.268Z,12
2019-03-05T05:29:16.258Z,12
2019-03-05T05:30:16.240Z,16
2019-03-05T05:31:16.228Z,12
2019-03-05T05:32:16.288Z,16
2019-03-05T05:33:16.213Z,20
2019-03-05T05:34:16.200Z,24
2019-03-05T05:35:16.196Z,28
2019-03-05T05:36:16.175Z,36
2019-03-05T05:37:16.165Z,40
2019-03-05T05:38:16.165Z,48
2019-03-05T05:39:16.133Z,56
2019-03-05T05:40:16.127Z,72
2019-03-05T05:41:16.106Z,84
2019-03-05T05:42:16.106Z,100
2019-03-05T05:43:16.093Z,112
2019-03-05T05:44:16.071Z,120
2019-03-05T05:45:16.058Z,136
2019-03-05T05:46:16.047Z,148
2019-03-05T05:47:16.033Z,168
2019-03-05T05:48:16.025Z,188
2019-03-05T05:49:16.020Z,184
2019-03-05T05:50:16.083Z,168
2019-03-05T05:51:15.988Z,168
2019-03-05T05:52:15.979Z,200
2019-03-05T05:53:15.972Z,192
2019-03-05T05:54:15.957Z,204
2019-03-05T05:55:15.939Z,252
2019-03-05T05:56:15.994Z,256
2019-03-05T05:57:15.912Z,292
2019-03-05T05:58:15.908Z,336
2019-03-05T05:59:15.889Z,324
2019-03-05T06:00:15.934Z,332
2019-03-05T06:01:15.868Z,416
2019-03-05T06:02:15.603Z,484
2019-03-05T06:03:15.842Z,480
2019-03-05T06:04:15.833Z,500
2019-03-05T06:05:15.813Z,532
2019-03-05T06:06:15.807Z,600
2019-03-05T06:07:15.790Z,656
2019-03-05T06:08:15.786Z,732
2019-03-05T06:09:15.764Z,776
2019-03-05T06:10:15.751Z,740
2019-03-05T06:11:15.742Z,728
2019-03-05T06:12:15.732Z,716
2019-03-05T06:13:15.718Z,744
2019-03-05T06:14:15.464Z,756
2019-03-05T06:15:15.694Z,748
2019-03-05T06:16:15.685Z,860
2019-03-05T06:17:15.669Z,896
2019-03-05T06:18:15.656Z,1016
2019-03-05T06:19:15.646Z,1012
2019-03-05T06:20:15.632Z,916
2019-03-05T06:21:15.616Z,848
2019-03-05T06:22:15.608Z,848
2019-03-05T06:23:15.594Z,868
2019-03-05T06:24:15.596Z,908
2019-03-05T06:25:15.601Z,952
2019-03-05T06:26:15.985Z,1088
2019-03-05T06:27:15.553Z,1136
2019-03-05T06:28:15.538Z,1060
2019-03-05T06:29:15.521Z,1056
2019-03-05T06:30:15.510Z,1196
2019-03-05T06:31:15.496Z,1360
2019-03-05T06:32:17.444Z,1400
2019-03-05T06:33:15.468Z,1556
2019-03-05T06:34:15.441Z,1504
2019-03-05T06:35:15.435Z,1324
2019-03-05T06:36:15.423Z,1364
2019-03-05T06:37:15.415Z,1444
2019-03-05T06:38:15.400Z,1664
2019-03-05T06:39:15.381Z,2168
2019-03-05T06:40:15.373Z,2548
2019-03-05T06:41:15.358Z,2624
2019-03-05T06:42:15.353Z,2804
2019-03-05T06:43:15.333Z,2884
2019-03-05T06:44:16.636Z,2740
2019-03-05T06:45:15.316Z,2832
2019-03-05T06:46:15.296Z,3056
2019-03-05T06:47:15.294Z,3356
2019-03-05T06:48:15.278Z,3608
2019-03-05T06:49:15.264Z,3588
2019-03-05T06:50:15.307Z,3636
2019-03-05T06:51:14.995Z,3808
2019-03-05T06:52:16.656Z,4000
2019-03-05T06:53:15.214Z,4028
2019-03-05T06:54:15.213Z,4160
2019-03-05T06:55:14.956Z,4340
2019-03-05T06:56:15.182Z,4464
2019-03-05T06:57:15.168Z,4592
2019-03-05T06:58:16.653Z,4696
2019-03-05T06:59:15.169Z,4788
2019-03-05T07:00:15.137Z,4908
2019-03-05T07:01:15.123Z,5048
2019-03-05T07:02:15.111Z,5180
2019-03-05T07:03:15.160Z,5312
2019-03-05T07:04:15.093Z,5512
2019-03-05T07:05:15.075Z,5644
2019-03-05T07:06:15.069Z,5724
2019-03-05T07:07:15.060Z,5776
2019-03-05T07:08:14.799Z,5884
2019-03-05T07:09:15.112Z,6024
2019-03-05T07:10:15.032Z,6136
2019-03-05T07:11:15.011Z,6160
2019-03-05T07:12:15.068Z,6140
2019-03-05T07:13:14.985Z,6240
2019-03-05T07:14:14.981Z,6304
2019-03-05T07:15:15.040Z,6776
2019-03-05T07:16:14.954Z,7792
2019-03-05T07:17:14.941Z,7884
2019-03-05T07:18:14.930Z,8092
2019-03-05T07:19:14.934Z,8976
2019-03-05T07:20:14.906Z,9440
2019-03-05T07:21:14.655Z,11128
2019-03-05T07:22:14.962Z,10904
2019-03-05T07:23:14.880Z,10328
2019-03-05T07:24:14.874Z,10568
2019-03-05T07:25:14.868Z,11284
2019-03-05T07:26:14.851Z,11592
2019-03-05T07:27:14.833Z,10860
2019-03-05T07:28:14.821Z,10560
2019-03-05T07:29:14.875Z,9744
2019-03-05T07:30:14.807Z,7792
2019-03-05T07:31:14.793Z,6900
2019-03-05T07:32:14.551Z,6648
2019-03-05T07:33:14.776Z,7024
2019-03-05T07:34:14.766Z,6796
2019-03-05T07:35:14.753Z,6560
2019-03-05T07:36:14.751Z,6424
2019-03-05T07:37:14.753Z,5856
2019-03-05T07:38:14.729Z,5776
2019-03-05T07:39:14.803Z,6192
2019-03-05T07:40:14.710Z,6888
2019-03-05T07:41:14.701Z,6984
2019-03-05T07:42:14.688Z,6300
2019-03-05T07:43:14.686Z,7540
2019-03-05T07:44:14.672Z,8160
2019-03-05T07:45:14.662Z,6204
2019-03-05T07:46:14.647Z,5032
2019-03-05T07:47:14.652Z,5020
2019-03-05T07:48:14.689Z,4672
2019-03-05T07:49:14.639Z,5596
2019-03-05T07:50:14.413Z,6456
2019-03-05T07:51:14.598Z,7440
2019-03-05T07:52:14.590Z,5768
2019-03-05T07:53:14.587Z,5152
2019-03-05T07:54:14.578Z,5372
2019-03-05T07:55:20.884Z,5972
2019-03-05T07:56:14.550Z,6504
2019-03-05T07:57:14.298Z,7436
2019-03-05T07:58:14.297Z,6872
2019-03-05T07:59:14.528Z,8084
2019-03-05T08:00:14.519Z,9760
2019-03-05T08:01:24.702Z,8908
2019-03-05T08:02:14.251Z,8876
2019-03-05T08:03:14.483Z,9372
2019-03-05T08:04:14.473Z,10168
2019-03-05T08:05:14.467Z,10460
2019-03-05T08:06:14.468Z,11004
2019-03-05T08:07:14.448Z,11184
2019-03-05T08:08:14.438Z,13200
2019-03-05T08:09:14.442Z,13464
2019-03-05T08:10:14.418Z,12812
2019-03-05T08:11:14.405Z,12100
2019-03-05T08:12:14.403Z,10764
2019-03-05T08:13:14.388Z,8296
2019-03-05T08:14:14.379Z,9624
2019-03-05T08:15:14.370Z,8580
2019-03-05T08:16:14.370Z,9452
2019-03-05T08:17:14.356Z,11052
2019-03-05T08:18:14.427Z,12012
2019-03-05T08:19:14.336Z,9016
2019-03-05T08:20:14.321Z,7844
2019-03-05T08:21:14.313Z,11140
2019-03-05T08:22:16.036Z,10880
2019-03-05T08:23:14.371Z,10764
2019-03-05T08:24:14.290Z,10768
2019-03-05T08:25:14.367Z,10608
2019-03-05T08:26:14.272Z,10224
2019-03-05T08:27:14.086Z,12368
2019-03-05T08:28:14.259Z,8956
2019-03-05T08:29:14.249Z,10224
2019-03-05T08:30:21.681Z,8392
2019-03-05T08:31:14.236Z,7424
2019-03-05T08:32:14.221Z,8832
2019-03-05T08:33:14.211Z,12420
2019-03-05T08:34:14.200Z,9780
2019-03-05T08:35:14.196Z,11352
2019-03-05T08:36:14.185Z,13432
2019-03-05T08:37:15.923Z,13064
2019-03-05T08:38:13.997Z,13360
2019-03-05T08:39:14.163Z,13672
2019-03-05T08:40:14.155Z,10360
2019-03-05T08:41:14.143Z,8340
2019-03-05T08:42:14.138Z,7084
2019-03-05T08:43:14.122Z,7228
2019-03-05T08:44:14.118Z,7928
2019-03-05T08:45:14.143Z,8708
2019-03-05T08:46:14.118Z,11104
2019-03-05T08:47:14.091Z,12064
2019-03-05T08:48:14.084Z,13500
2019-03-05T08:49:14.115Z,12260
2019-03-05T08:50:14.066Z,11452
2019-03-05T08:51:13.814Z,11348
2019-03-05T08:52:14.050Z,12716
2019-03-05T08:53:14.041Z,12412
2019-03-05T08:54:15.042Z,12828
2019-03-05T08:55:13.785Z,12400
2019-03-05T08:56:14.024Z,10292
2019-03-05T08:57:14.010Z,8900
2019-03-05T08:58:14.049Z,10460
2019-03-05T08:59:13.752Z,11616
2019-03-05T09:00:13.752Z,13244
2019-03-05T09:01:13.979Z,12140
2019-03-05T09:02:13.965Z,14748
2019-03-05T09:03:13.960Z,14364
2019-03-05T09:04:14.018Z,13560
2019-03-05T09:05:13.964Z,12836
2019-03-05T09:06:13.933Z,14500
2019-03-05T09:07:13.938Z,15808
2019-03-05T09:08:13.918Z,14704
2019-03-05T09:09:13.923Z,13128
2019-03-05T09:10:13.920Z,14436
2019-03-05T09:11:13.898Z,13052
2019-03-05T09:12:13.952Z,11444
2019-03-05T09:13:13.885Z,12012
2019-03-05T09:14:13.871Z,11672
2019-03-05T09:15:13.865Z,12556
2019-03-05T09:16:13.614Z,12228
2019-03-05T09:17:13.606Z,10988
2019-03-05T09:18:13.844Z,10068
2019-03-05T09:19:13.838Z,11808
2019-03-05T09:20:13.837Z,13276
2019-03-05T09:21:13.818Z,13432
2019-03-05T09:22:13.823Z,14196
2019-03-05T09:23:13.813Z,15872
2019-03-05T09:24:13.798Z,15192
2019-03-05T09:25:13.821Z,15680
2019-03-05T09:26:13.786Z,16768
2019-03-05T09:27:13.781Z,15616
2019-03-05T09:28:14.598Z,15584
2019-03-05T09:29:13.780Z,15048
2019-03-05T09:30:13.754Z,14780
2019-03-05T09:31:13.746Z,12552
2019-03-05T09:32:13.744Z,10344
2019-03-05T09:33:14.044Z,8664
2019-03-05T09:34:13.732Z,8256
2019-03-05T09:35:13.726Z,9832
2019-03-05T09:36:13.719Z,9420
2019-03-05T09:37:13.741Z,7752
2019-03-05T09:38:13.701Z,5256
2019-03-05T09:39:13.711Z,4336
2019-03-05T09:40:13.691Z,4136
2019-03-05T09:41:13.440Z,4624
2019-03-05T09:42:13.674Z,5656
2019-03-05T09:43:13.668Z,9224
2019-03-05T09:44:13.653Z,9128
2019-03-05T09:45:13.658Z,8336
2019-03-05T09:46:13.648Z,8436
2019-03-05T09:47:13.649Z,9772
2019-03-05T09:48:13.826Z,11412
2019-03-05T09:49:13.618Z,10916
2019-03-05T09:50:13.607Z,9680
2019-03-05T09:51:13.357Z,9596
2019-03-05T09:52:13.598Z,8340
2019-03-05T09:53:13.586Z,9000
2019-03-05T09:54:13.579Z,10596
2019-03-05T09:55:13.334Z,10512
2019-03-05T09:56:13.571Z,10752
2019-03-05T09:57:13.555Z,11412
2019-03-05T09:58:15.702Z,13016
2019-03-05T09:59:13.535Z,14808
2019-03-05T10:00:13.600Z,13276
2019-03-05T10:01:13.522Z,12072
2019-03-05T10:02:13.512Z,12500
2019-03-05T10:03:13.533Z,11260
2019-03-05T10:04:13.264Z,12252
2019-03-05T10:05:13.494Z,12320
2019-03-05T10:06:13.487Z,12416
2019-03-05T10:07:23.667Z,11092
2019-03-05T10:08:13.230Z,9572
2019-03-05T10:09:13.457Z,7960
2019-03-05T10:10:13.450Z,10152
2019-03-05T10:11:13.445Z,12220
2019-03-05T10:12:13.438Z,12864
2019-03-05T10:13:15.774Z,11460
2019-03-05T10:14:13.417Z,9716
2019-03-05T10:15:13.409Z,8772
2019-03-05T10:16:13.453Z,7580
2019-03-05T10:17:13.399Z,7768
2019-03-05T10:18:19.995Z,9480
2019-03-05T10:19:13.379Z,8156
2019-03-05T10:20:13.377Z,6624
2019-03-05T10:21:14.492Z,7256
2019-03-05T10:22:13.359Z,8860
2019-03-05T10:23:13.345Z,8260
2019-03-05T10:24:17.851Z,10700
2019-03-05T10:25:15.411Z,12004
2019-03-05T10:26:15.337Z,13352
2019-03-05T10:27:13.319Z,9796
2019-03-05T10:28:13.314Z,7564
2019-03-05T10:29:13.296Z,9436
2019-03-05T10:30:24.048Z,11000
2019-03-05T10:31:13.285Z,11224
2019-03-05T10:32:13.273Z,11764
2019-03-05T10:33:13.269Z,12664
2019-03-05T10:34:13.259Z,14652
2019-03-05T10:35:13.006Z,11980
2019-03-05T10:36:13.301Z,8760
2019-03-05T10:37:23.686Z,10804
2019-03-05T10:38:13.233Z,13544
2019-03-05T10:39:13.225Z,15052
2019-03-05T10:40:13.221Z,12256
2019-03-05T10:41:12.967Z,11336
2019-03-05T10:42:13.197Z,9888
2019-03-05T10:43:16.081Z,9416
2019-03-05T10:44:13.234Z,10816
2019-03-05T10:45:13.170Z,11464
2019-03-05T10:46:13.169Z,9208
2019-03-05T10:47:13.161Z,7348
2019-03-05T10:48:13.151Z,7264
2019-03-05T10:49:13.150Z,9672
2019-03-05T10:50:22.322Z,11752
2019-03-05T10:51:13.132Z,12232
2019-03-05T10:52:13.124Z,12036
2019-03-05T10:53:13.112Z,12412
2019-03-05T10:54:13.106Z,11772
2019-03-05T10:55:13.107Z,11328
2019-03-05T10:56:13.090Z,12192
2019-03-05T10:57:13.085Z,13248
2019-03-05T10:58:13.079Z,12656
2019-03-05T10:59:13.068Z,11376
2019-03-05T11:00:13.132Z,10812
2019-03-05T11:01:13.047Z,9744
2019-03-05T11:02:13.042Z,9264
2019-03-05T11:03:13.114Z,8864
2019-03-05T11:04:13.024Z,8736
2019-03-05T11:05:13.019Z,9052
2019-03-05T11:06:13.022Z,8152
2019-03-05T11:07:13.000Z,7492
2019-03-05T11:08:12.752Z,6740
2019-03-05T11:09:13.012Z,6932
2019-03-05T11:10:12.983Z,6432
2019-03-05T11:11:20.834Z,5512
2019-03-05T11:12:13.032Z,5224
2019-03-05T11:13:12.721Z,5104
2019-03-05T11:14:12.951Z,5464
2019-03-05T11:15:12.939Z,6744
2019-03-05T11:16:12.700Z,7228
2019-03-05T11:17:12.933Z,7588
2019-03-05T11:18:12.918Z,8780
2019-03-05T11:19:12.915Z,9828
2019-03-05T11:20:12.898Z,11344
2019-03-05T11:21:12.898Z,12628
2019-03-05T11:22:12.887Z,13324
2019-03-05T11:23:14.144Z,13732
2019-03-05T11:24:12.873Z,13912
2019-03-05T11:25:12.859Z,13080
2019-03-05T11:26:12.856Z,12016
2019-03-05T11:27:12.848Z,10644
2019-03-05T11:28:12.842Z,10408
2019-03-05T11:29:12.831Z,10524
2019-03-05T11:30:12.823Z,11608
2019-03-05T11:31:12.814Z,13248
2019-03-05T11:32:12.803Z,13452
2019-03-05T11:33:12.827Z,13028
2019-03-05T11:34:15.457Z,10248
2019-03-05T11:35:12.777Z,8264
2019-03-05T11:36:13.246Z,7628
2019-03-05T11:37:12.760Z,6588
2019-03-05T11:38:12.521Z,8120
2019-03-05T11:39:13.136Z,9424
2019-03-05T11:40:23.062Z,11488
2019-03-05T11:41:12.735Z,12068
2019-03-05T11:42:12.722Z,12128
2019-03-05T11:43:12.906Z,11796
2019-03-05T11:44:12.873Z,9640
2019-03-05T11:45:16.518Z,9920
2019-03-05T11:46:12.722Z,10080
2019-03-05T11:47:12.682Z,9604
2019-03-05T11:48:12.676Z,8728
2019-03-05T11:49:12.678Z,8400
2019-03-05T11:50:12.670Z,9248
2019-03-05T11:51:12.661Z,10528
2019-03-05T11:52:12.650Z,10796
2019-03-05T11:53:12.646Z,10908
2019-03-05T11:54:12.635Z,10672
2019-03-05T11:55:12.699Z,10272
2019-03-05T11:56:12.629Z,10224
2019-03-05T11:57:12.624Z,10172
2019-03-05T11:58:12.610Z,9696
2019-03-05T11:59:12.608Z,8860
2019-03-05T12:00:12.667Z,8412
2019-03-05T12:01:12.337Z,8688
2019-03-05T12:02:24.120Z,9996
2019-03-05T12:03:12.560Z,10776
2019-03-05T12:04:12.559Z,11700
2019-03-05T12:05:12.551Z,11628
2019-03-05T12:06:12.658Z,9748
2019-03-05T12:07:12.780Z,7292
2019-03-05T12:08:12.531Z,7264
2019-03-05T12:09:12.517Z,7712
2019-03-05T12:10:12.523Z,7616
2019-03-05T12:11:12.501Z,7684
2019-03-05T12:12:12.496Z,8396
2019-03-05T12:13:14.420Z,7900
2019-03-05T12:14:12.486Z,6628
2019-03-05T12:15:12.474Z,5936
2019-03-05T12:16:12.463Z,5892
2019-03-05T12:17:12.455Z,6388
2019-03-05T12:18:12.453Z,6880
2019-03-05T12:19:12.445Z,7080
2019-03-05T12:20:12.436Z,7140
2019-03-05T12:21:12.468Z,7100
2019-03-05T12:22:12.433Z,6540
2019-03-05T12:23:15.173Z,5688
2019-03-05T12:24:12.406Z,5636
2019-03-05T12:25:12.406Z,5340
2019-03-05T12:26:12.444Z,5172
2019-03-05T12:27:12.377Z,5276
2019-03-05T12:28:17.521Z,5188
2019-03-05T12:29:12.413Z,4972
2019-03-05T12:30:12.364Z,4848
2019-03-05T12:31:12.107Z,4848
2019-03-05T12:32:12.345Z,4964
2019-03-05T12:33:13.808Z,5248
2019-03-05T12:34:12.325Z,5348
2019-03-05T12:35:12.317Z,5172
2019-03-05T12:36:12.323Z,4524
2019-03-05T12:37:12.305Z,4160
2019-03-05T12:38:12.330Z,3972
2019-03-05T12:39:12.290Z,4004
2019-03-05T12:40:12.279Z,4096
2019-03-05T12:41:12.269Z,4068
2019-03-05T12:42:12.273Z,4012
2019-03-05T12:43:12.255Z,4168
2019-03-05T12:44:12.608Z,4348
2019-03-05T12:45:12.243Z,4436
2019-03-05T12:46:12.234Z,4556
2019-03-05T12:47:12.222Z,4676
2019-03-05T12:48:12.221Z,4832
2019-03-05T12:49:12.220Z,4952
2019-03-05T12:50:12.204Z,5080
2019-03-05T12:51:12.199Z,5288
2019-03-05T12:52:12.184Z,5640
2019-03-05T12:53:12.169Z,5964
2019-03-05T12:54:12.158Z,6364
2019-03-05T12:55:12.153Z,6912
2019-03-05T12:56:22.984Z,7536
2019-03-05T12:57:12.159Z,7988
2019-03-05T12:58:12.128Z,8088
2019-03-05T12:59:12.132Z,8124
2019-03-05T13:00:12.111Z,8188
2019-03-05T13:01:12.098Z,8140
2019-03-05T13:02:12.094Z,8072
2019-03-05T13:03:12.085Z,8004
2019-03-05T13:04:12.077Z,8044
2019-03-05T13:05:12.063Z,8144
2019-03-05T13:06:12.061Z,8236
2019-03-05T13:07:14.094Z,8500
2019-03-05T13:08:12.040Z,8816
2019-03-05T13:09:17.658Z,9032
2019-03-05T13:10:12.034Z,9012
2019-03-05T13:11:15.686Z,8860
2019-03-05T13:12:12.007Z,8556
2019-03-05T13:13:16.614Z,8220
2019-03-05T13:14:18.365Z,8420
2019-03-05T13:15:11.980Z,9500
2019-03-05T13:16:13.815Z,10828
2019-03-05T13:17:11.966Z,10676
2019-03-05T13:18:14.163Z,10736
2019-03-05T13:19:16.113Z,10264
2019-03-05T13:20:11.953Z,8988
2019-03-05T13:21:15.018Z,10060
2019-03-05T13:22:12.109Z,10260
2019-03-05T13:23:16.715Z,8836
2019-03-05T13:24:17.079Z,8568
2019-03-05T13:25:11.897Z,7048
2019-03-05T13:26:14.912Z,5940
2019-03-05T13:27:11.878Z,5908
2019-03-05T13:28:11.666Z,6808
2019-03-05T13:29:14.302Z,6864
2019-03-05T13:30:12.954Z,6556
2019-03-05T13:31:12.022Z,5696
2019-03-05T13:32:11.853Z,5348
2019-03-05T13:33:11.833Z,5152
2019-03-05T13:34:14.024Z,4384
2019-03-05T13:35:14.139Z,3788
2019-03-05T13:36:18.985Z,4416
2019-03-05T13:37:11.832Z,5700
2019-03-05T13:38:14.868Z,6856
2019-03-05T13:39:11.806Z,6536
2019-03-05T13:40:11.798Z,6988
2019-03-05T13:41:15.495Z,7580
2019-03-05T13:42:12.788Z,7616
2019-03-05T13:43:11.756Z,8556
2019-03-05T13:44:11.750Z,9740
2019-03-05T13:45:14.163Z,9596
2019-03-05T13:46:11.726Z,9380
2019-03-05T13:47:15.896Z,8820